Time;durP1;ratioP1;P1;durP2;ratioP2;P2;SDS_P1;SDS_P2;PMS_P1;PMS_P2;Temp;Humidity;BMP_temperature;BMP_pressure;BME280_temperature;BME280_humidity;BME280_pressure;Samples;Min_cycle;Max_cycle;Signal;HPM_P1;HPM_P2
2023/03/23 00:01:02;;;;;;;15.85;4.43;;;;;;;13.11;74.86;98176.78;5011983;28;20253;-74
2023/03/23 00:03:31;;;;;;;7.63;2.35;;;12.90;99.90;;;13.08;75.13;98179.53;5007625;28;20235;-74
2023/03/23 00:06:04;;;;;;;8.23;2.30;;;12.90;99.90;;;13.02;75.36;98193.03;5007482;28;20231;-74
2023/03/23 00:08:45;;;;;;;10.38;2.83;;;12.90;99.90;;;13.02;75.61;98193.03;5016111;28;20235;-73
2023/03/23 00:11:20;;;;;;;7.43;2.08;;;12.90;99.90;;;12.94;75.77;98209.19;5033222;28;20236;-74
2023/03/23 00:13:52;;;;;;;8.60;2.53;;;12.80;99.90;;;12.96;75.39;98217.09;5029993;28;20265;-77
2023/03/23 00:16:28;;;;;;;10.18;2.95;;;12.90;99.90;;;13.06;75.34;98221.19;5015186;28;20225;-75
2023/03/23 00:18:56;;;;;;;6.43;1.98;;;12.50;99.90;;;13.04;75.05;98228.34;5034005;28;20627;-73
2023/03/23 00:21:33;;;;;;;6.78;2.05;;;12.90;99.90;;;13.08;74.53;98219.34;5026690;28;20238;-75
2023/03/23 00:24:11;;;;;;;8.15;2.38;;;13.00;99.90;;;13.13;74.53;98207.63;5033144;28;20246;-76
2023/03/23 00:26:43;;;;;;;7.32;2.08;;;13.00;99.90;;;13.17;73.85;98215.50;5030666;28;20291;-73
2023/03/23 00:29:22;;;;;;;7.78;2.22;;;12.80;99.90;;;13.17;73.87;98207.56;5021582;28;20230;-73
2023/03/23 00:31:49;;;;;;;8.65;2.53;;;13.10;99.90;;;13.24;73.06;98209.94;5045987;28;20270;-74
2023/03/23 00:34:21;;;;;;;11.80;3.25;;;13.10;99.90;;;13.26;72.97;98201.91;5030783;28;20234;-74
2023/03/23 00:36:56;;;;;;;9.25;2.58;;;13.10;99.90;;;13.23;73.02;98194.06;5019430;28;20279;-74
2023/03/23 00:39:26;;;;;;;6.88;1.98;;;13.10;99.90;;;13.25;72.76;98205.47;5045845;28;20350;-76
2023/03/23 00:42:00;;;;;;;8.05;2.33;;;13.00;99.90;;;13.22;73.09;98210.91;5033173;28;20309;-74
2023/03/23 00:44:28;;;;;;;8.88;2.45;;;12.90;99.90;;;13.11;73.29;98213.91;5035562;28;20238;-73
2023/03/23 00:46:56;;;;;;;6.90;2.05;;;;;;;13.11;73.14;98219.22;5053290;28;20230;-73
2023/03/23 00:49:26;;;;;;;8.02;2.35;;;13.10;99.90;;;13.26;72.68;98212.53;5030262;28;20755;-75
2023/03/23 00:51:54;;;;;;;7.90;2.28;;;13.00;99.90;;;13.13;72.90;98217.38;5024678;28;20237;-73
2023/03/23 00:54:21;;;;;;;11.38;2.97;;;12.90;99.90;;;13.12;72.75;98219.16;5019813;28;20244;-73
2023/03/23 00:56:48;;;;;;;8.35;2.40;;;;;;;13.10;73.02;98210.41;5024819;28;20248;-75
2023/03/23 00:59:14;;;;;;;7.60;2.20;;;;;;;13.15;73.05;98228.81;5025663;28;20246;-74
2023/03/23 01:01:41;;;;;;;7.13;2.15;;;;;;;13.22;72.78;98235.66;5036142;28;20233;-73
2023/03/23 01:04:08;;;;;;;9.02;2.58;;;13.00;99.90;;;13.23;72.79;98233.88;5030618;28;20230;-74
2023/03/23 01:06:40;;;;;;;6.90;1.88;;;13.10;99.90;;;13.21;72.90;98235.72;5055330;28;20375;-74
2023/03/23 01:09:09;;;;;;;7.65;2.22;;;13.00;99.90;;;13.19;72.88;98240.22;5028354;28;20234;-72
2023/03/23 01:11:37;;;;;;;7.03;2.05;;;;;;;13.25;72.88;98240.84;5032396;28;20237;-73
2023/03/23 01:14:04;;;;;;;9.50;2.65;;;;;;;13.22;72.64;98230.34;5027861;28;20238;-73
2023/03/23 01:16:30;;;;;;;6.50;1.90;;;;;;;13.11;73.11;98232.50;5029218;28;20230;-72
2023/03/23 01:18:56;;;;;;;7.10;2.10;;;;;;;13.13;73.35;98242.13;5044317;28;20237;-72
2023/03/23 01:21:24;;;;;;;7.03;2.15;;;;;;;13.14;73.28;98243.88;5028089;28;20243;-72
2023/03/23 01:23:50;;;;;;;8.55;2.50;;;13.20;99.90;;;13.02;73.77;98254.91;5022795;28;20341;-72
2023/03/23 01:26:22;;;;;;;9.68;2.83;;;12.90;99.90;;;13.01;74.18;98273.53;5023957;28;20237;-72
2023/03/23 01:28:49;;;;;;;10.65;3.08;;;;;;;13.01;74.24;98285.03;5009593;28;20238;-73
2023/03/23 01:31:21;;;;;;;12.00;3.45;;;12.80;99.90;;;12.91;75.04;98286.22;5028491;28;20222;-72
2023/03/23 01:33:50;;;;;;;9.93;2.78;;;12.80;99.90;;;12.87;75.18;98302.31;5022817;28;20226;-72
2023/03/23 01:36:21;;;;;;;13.20;3.92;;;12.70;99.90;;;12.92;75.53;98308.31;5025312;28;20235;-72
2023/03/23 01:38:49;;;;;;;7.15;2.25;;;12.70;99.90;;;12.81;75.72;98319.28;5031404;28;20593;-72
2023/03/23 01:41:16;;;;;;;6.68;1.98;;;12.70;99.90;;;12.85;75.97;98318.28;5027068;28;20687;-72
2023/03/23 01:44:01;;;;;;;12.70;4.15;;;12.70;99.90;;;12.86;75.75;98325.31;5025912;28;20287;-72
2023/03/23 01:46:32;;;;;;;9.95;2.92;;;12.70;99.90;;;12.84;75.77;98332.44;5024958;28;20238;-72
2023/03/23 01:49:09;;;;;;;5.18;1.60;;;12.70;99.90;;;12.90;75.50;98337.53;5045710;28;20264;-72
2023/03/23 01:51:48;;;;;;;11.63;3.20;;;12.60;99.90;;;12.88;75.79;98335.88;5031818;28;20226;-72
2023/03/23 01:54:19;;;;;;;10.23;2.97;;;12.70;99.90;;;12.78;76.04;98346.78;5032710;28;20226;-72
2023/03/23 01:56:57;;;;;;;9.38;2.60;;;12.70;99.90;;;12.83;75.97;98349.28;5016813;28;20265;-72
2023/03/23 01:59:25;;;;;;;7.40;2.22;;;12.70;99.90;;;12.77;76.13;98347.69;5107564;23;20230;-77
2023/03/23 02:01:53;;;;;;;10.27;3.20;;;12.70;99.90;;;12.88;75.89;98367.69;5012339;28;20266;-77
2023/03/23 02:04:21;;;;;;;9.27;2.65;;;12.70;99.90;;;12.98;75.06;98351.41;5015619;28;20272;-77
2023/03/23 02:06:47;;;;;;;8.70;2.58;;;12.80;99.90;;;13.02;74.92;98353.09;5035163;28;20231;-78
2023/03/23 02:09:17;;;;;;;8.25;2.50;;;13.00;99.90;;;13.20;74.16;98354.28;5033219;28;20219;-78
2023/03/23 02:11:44;;;;;;;7.22;2.10;;;13.10;99.90;;;13.23;73.64;98342.69;5002364;28;20314;-78
2023/03/23 02:14:11;;;;;;;9.82;2.78;;;;;;;13.27;73.04;98331.03;5019349;28;20406;-76
2023/03/23 02:17:03;;;;;;;8.52;2.45;;;13.20;99.90;;;13.31;72.77;98314.94;5031599;28;20238;-76
2023/03/23 02:20:13;;;;;;;6.75;1.92;;;13.20;99.90;;;13.49;71.93;98308.09;5013842;28;20230;-76
2023/03/23 02:23:03;;;;;;;6.45;1.85;;;13.30;99.90;;;13.45;71.68;98303.81;4990135;28;20242;-76
2023/03/23 02:25:53;;;;;;;11.75;3.08;;;13.30;99.90;;;13.39;71.93;98298.75;5034467;28;20615;-76
2023/03/23 02:28:35;;;;;;;10.30;2.83;;;13.10;99.90;;;13.46;72.05;98292.28;5031391;28;20356;-76
2023/03/23 02:31:47;;;;;;;7.20;2.10;;;13.20;99.90;;;13.38;72.06;98286.38;5007739;28;20238;-76
2023/03/23 02:34:31;;;;;;;10.48;2.78;;;13.20;99.90;;;13.37;71.91;98292.63;5020423;28;20224;-78
2023/03/23 02:37:13;;;;;;;6.40;1.90;;;13.20;99.90;;;13.42;71.93;98277.41;5010809;28;20242;-76
2023/03/23 02:39:51;;;;;;;5.72;1.63;;;13.20;99.90;;;13.43;71.96;98266.72;5014731;28;20235;-77
2023/03/23 02:42:24;;;;;;;6.97;1.98;;;13.10;99.90;;;13.29;72.63;98292.91;4995664;28;20235;-76
2023/03/23 02:44:54;;;;;;;6.95;2.15;;;13.10;99.90;;;13.29;72.51;98292.91;5030087;28;20226;-76
2023/03/23 02:47:25;;;;;;;7.10;1.90;;;13.20;99.90;;;13.37;72.68;98306.75;5016685;28;20226;-77
2023/03/23 02:49:54;;;;;;;6.85;1.95;;;13.00;99.90;;;13.27;73.21;98320.41;5013279;28;20246;-77
2023/03/23 02:52:27;;;;;;;8.48;2.45;;;13.10;99.90;;;13.31;72.79;98314.94;5033502;28;20230;-77
2023/03/23 02:54:55;;;;;;;11.95;3.25;;;13.10;99.90;;;13.31;73.29;98325.56;5016035;28;20262;-77
2023/03/23 02:57:23;;;;;;;6.78;1.85;;;13.20;99.90;;;13.28;72.88;98330.97;5029650;28;20222;-78
2023/03/23 02:59:50;;;;;;;14.00;3.80;;;;;;;13.30;73.33;98321.19;5029792;23;20249;-79
2023/03/23 03:02:30;;;;;;;11.73;3.17;;;13.10;99.90;;;13.27;73.52;98337.22;4992981;28;20288;-77
2023/03/23 03:05:24;;;;;;;7.90;2.22;;;13.10;99.90;;;13.22;73.83;98330.34;5021773;28;20243;-77
2023/03/23 03:08:17;;;;;;;7.55;2.08;;;13.10;99.90;;;13.26;73.83;98335.47;4998539;28;20224;-76
2023/03/23 03:11:05;;;;;;;9.95;2.60;;;13.20;99.90;;;13.32;73.48;98329.94;4975732;28;20266;-76
2023/03/23 03:13:31;;;;;;;6.75;1.92;;;;;;;13.36;73.23;98328.91;4970115;28;20228;-74
2023/03/23 03:16:03;;;;;;;7.20;2.33;;;13.20;99.90;;;13.35;73.16;98326.31;4989063;28;20239;-73
2023/03/23 03:18:55;;;;;;;7.03;2.00;;;13.20;99.90;;;13.44;72.53;98321.53;5004808;28;20245;-74
2023/03/23 03:21:25;;;;;;;7.05;2.03;;;13.40;99.90;;;13.60;71.79;98329.81;4994074;28;20241;-76
2023/03/23 03:23:56;;;;;;;7.55;2.10;;;13.30;99.90;;;13.49;71.98;98317.84;5011265;28;20289;-76
2023/03/23 03:26:26;;;;;;;7.65;2.05;;;13.20;99.90;;;13.26;73.31;98340.78;4994022;28;20234;-77
2023/03/23 03:28:54;;;;;;;7.03;2.03;;;13.10;99.90;;;13.26;73.69;98371.75;5007089;28;20224;-75
2023/03/23 03:31:32;;;;;;;8.27;2.33;;;13.10;99.90;;;13.31;73.33;98368.03;5022156;28;20234;-75
2023/03/23 03:34:01;;;;;;;7.30;2.03;;;;;;;13.33;73.46;98349.41;5007957;28;20286;-75
2023/03/23 03:36:37;;;;;;;9.52;2.58;;;13.20;99.90;;;13.33;73.50;98357.38;5005529;28;20223;-74
2023/03/23 03:39:09;;;;;;;9.80;2.60;;;12.80;99.90;;;13.36;73.49;98360.78;5009560;28;20239;-74
2023/03/23 03:41:37;;;;;;;8.40;2.30;;;13.30;99.90;;;13.44;72.98;98361.38;5018846;28;20223;-73
2023/03/23 03:44:05;;;;;;;8.75;2.65;;;13.30;99.90;;;13.49;72.91;98369.16;5009768;28;20237;-73
2023/03/23 03:46:32;;;;;;;8.60;2.45;;;;;;;13.52;73.01;98360.22;5004306;28;20228;-73
2023/03/23 03:49:02;;;;;;;9.20;2.78;;;13.20;99.90;;;13.38;73.39;98376.66;5013946;28;20239;-72
2023/03/23 03:51:30;;;;;;;8.55;2.78;;;13.20;99.90;;;13.40;73.60;98393.38;5010610;28;20236;-73
2023/03/23 03:53:56;;;;;;;8.32;2.40;;;;;;;13.44;73.68;98390.56;5007440;28;20258;-73
2023/03/23 03:56:24;;;;;;;8.25;2.50;;;13.20;99.90;;;13.39;73.65;98389.00;5023991;28;20224;-72
2023/03/23 03:58:50;;;;;;;7.35;2.13;;;;;;;13.37;74.08;98402.31;5025449;28;20311;-75
2023/03/23 04:01:18;;;;;;;6.30;1.85;;;13.20;99.90;;;13.36;73.92;98413.00;5008634;28;20251;-75
2023/03/23 04:03:45;;;;;;;7.15;2.05;;;;;;;13.45;73.93;98421.50;5020938;28;20228;-75
2023/03/23 04:06:12;;;;;;;7.53;2.00;;;;;;;13.47;73.85;98417.94;5026224;28;20283;-75
2023/03/23 04:08:41;;;;;;;6.28;1.80;;;13.20;99.90;;;13.36;74.02;98423.63;5026649;28;20227;-73
2023/03/23 04:11:08;;;;;;;9.68;2.55;;;;;;;13.32;74.46;98446.75;5005472;28;20318;-74
2023/03/23 04:13:34;;;;;;;6.60;1.92;;;;;;;13.29;75.03;98465.44;5009950;28;20761;-74
2023/03/23 04:16:01;;;;;;;7.00;1.95;;;;;;;13.30;75.45;98474.25;5001743;28;20232;-74
2023/03/23 04:18:29;;;;;;;7.90;2.15;;;;;;;13.21;76.25;98501.97;5009114;28;20240;-74
2023/03/23 04:20:58;;;;;;;6.95;2.00;;;;;;;13.12;77.11;98527.00;5019930;28;20369;-75
2023/03/23 04:23:27;;;;;;;7.80;2.20;;;13.00;99.90;;;13.18;77.03;98531.25;5021924;28;20294;-75
2023/03/23 04:25:56;;;;;;;7.88;2.25;;;12.40;99.90;;;13.11;77.62;98548.25;5016932;28;20297;-74
2023/03/23 04:28:24;;;;;;;5.82;1.75;;;;;;;13.13;77.79;98562.34;4986224;28;20303;-74
2023/03/23 04:30:54;;;;;;;6.13;1.75;;;12.90;99.90;;;13.03;78.59;98590.97;4996433;28;20323;-75
2023/03/23 04:33:24;;;;;;;10.88;3.33;;;12.80;99.90;;;12.98;79.18;98589.31;4994232;28;20251;-75
2023/03/23 04:35:53;;;;;;;7.30;2.03;;;12.80;99.90;;;12.94;79.69;98598.28;4981297;28;20234;-73
2023/03/23 04:38:21;;;;;;;6.45;1.90;;;12.70;99.90;;;12.89;80.33;98619.66;5018969;28;20501;-73
2023/03/23 04:40:51;;;;;;;7.35;2.20;;;12.70;99.90;;;12.81;81.31;98645.53;4983430;28;20234;-73
2023/03/23 04:43:26;;;;;;;8.63;2.47;;;12.60;99.90;;;12.78;82.17;98649.13;5014882;28;20241;-75
2023/03/23 04:45:57;;;;;;;7.28;1.98;;;12.70;99.90;;;12.65;83.31;98671.59;4994785;28;20354;-74
2023/03/23 04:48:26;;;;;;;8.07;2.38;;;12.50;99.90;;;12.71;83.57;98684.69;5020812;28;20241;-75
2023/03/23 04:50:53;;;;;;;6.25;1.80;;;12.60;99.90;;;12.93;82.57;98700.03;5007624;28;20245;-73
2023/03/23 04:53:20;;;;;;;7.35;1.98;;;;;;;12.87;82.45;98692.22;4991222;28;20307;-72
2023/03/23 04:55:47;;;;;;;7.93;2.15;;;12.60;99.90;;;12.75;82.82;98707.56;5015663;28;20307;-72
2023/03/23 04:58:15;;;;;;;32.58;7.90;;;12.70;99.90;;;12.85;82.63;98709.97;5036982;23;20223;-74
2023/03/23 05:00:49;;;;;;;9.50;2.80;;;;;;;12.82;82.82;98702.97;5006934;28;20254;-74
2023/03/23 05:03:17;;;;;;;6.85;2.00;;;12.70;99.90;;;12.93;81.89;98715.94;5027774;28;20236;-74
2023/03/23 05:05:47;;;;;;;8.80;2.40;;;12.90;99.90;;;13.09;80.61;98704.88;5038590;28;20233;-74
2023/03/23 05:08:16;;;;;;;5.30;1.60;;;13.00;99.90;;;13.19;80.04;98702.88;5043482;28;20229;-73
2023/03/23 05:10:49;;;;;;;4.55;1.42;;;;;;;13.18;79.72;98685.19;5051248;28;20225;-74
2023/03/23 05:13:15;;;;;;;8.52;2.47;;;;;;;13.11;79.63;98697.75;5043807;28;20712;-73
2023/03/23 05:15:42;;;;;;;11.30;3.22;;;;;;;13.24;79.24;98694.75;5043717;28;20257;-72
2023/03/23 05:18:09;;;;;;;6.60;1.83;;;;;;;13.34;77.99;98677.66;5045073;28;20328;-73
2023/03/23 05:20:36;;;;;;;7.72;2.25;;;;;;;13.22;78.44;98678.00;5038193;28;20231;-73
2023/03/23 05:23:02;;;;;;;7.50;2.10;;;;;;;13.21;78.39;98678.94;5046883;28;20310;-73
2023/03/23 05:25:28;;;;;;;7.30;1.98;;;;;;;13.04;79.30;98690.88;5044475;28;20249;-73
2023/03/23 05:27:55;;;;;;;7.57;2.10;;;;;;;13.25;78.82;98701.81;5049177;28;20238;-73
2023/03/23 05:30:22;;;;;;;10.25;2.90;;;13.20;99.90;;;13.44;77.84;98693.25;5050076;28;20704;-75
2023/03/23 05:32:51;;;;;;;8.35;2.28;;;13.50;99.90;;;13.40;77.23;98669.50;5042909;28;20241;-75
2023/03/23 05:35:20;;;;;;;6.30;1.80;;;13.20;99.90;;;13.40;76.43;98641.16;5047061;28;20324;-76
2023/03/23 05:37:46;;;;;;;6.15;1.73;;;;;;;13.21;77.32;98663.88;5036581;28;20238;-74
2023/03/23 05:40:13;;;;;;;6.95;1.92;;;12.90;99.90;;;12.97;78.76;98691.06;5031277;28;20233;-74
2023/03/23 05:42:40;;;;;;;8.68;2.47;;;12.80;99.90;;;12.86;79.79;98715.22;5050346;28;20313;-74
2023/03/23 05:45:10;;;;;;;7.82;2.22;;;12.70;99.90;;;12.81;80.44;98733.06;5037319;28;20228;-76
2023/03/23 05:47:40;;;;;;;9.10;2.40;;;12.70;99.90;;;12.81;80.73;98730.41;5044963;28;20249;-76
2023/03/23 05:50:12;;;;;;;8.20;2.25;;;12.70;99.90;;;12.81;81.28;98748.97;5041883;28;20275;-75
2023/03/23 05:52:38;;;;;;;10.93;3.00;;;;;;;12.78;81.66;98768.50;5029720;28;20225;-76
2023/03/23 05:55:06;;;;;;;11.45;3.10;;;12.70;99.90;;;12.89;81.34;98778.81;5047206;28;20841;-77
2023/03/23 05:57:32;;;;;;;7.45;2.05;;;;;;;12.95;81.02;98786.63;5045475;28;20241;-77
2023/03/23 05:59:59;;;;;;;12.15;3.22;;;;;;;13.18;80.32;98801.09;5064376;23;20234;-76
2023/03/23 06:02:29;;;;;;;8.63;2.42;;;13.00;99.90;;;13.14;80.23;98798.50;5026053;28;20235;-76
2023/03/23 06:04:57;;;;;;;12.20;3.35;;;;;;;13.42;79.44;98811.91;5019883;28;20297;-77
2023/03/23 06:07:24;;;;;;;8.70;2.35;;;13.10;99.90;;;13.41;79.19;98807.50;5038628;28;20353;-75
2023/03/23 06:09:52;;;;;;;24.02;6.30;;;13.30;99.90;;;13.44;78.92;98803.91;5023240;28;20238;-75
2023/03/23 06:12:20;;;;;;;13.80;3.72;;;;;;;13.40;79.38;98810.22;5015585;28;20261;-75
2023/03/23 06:14:49;;;;;;;8.20;2.10;;;13.20;99.90;;;13.32;79.91;98818.41;5026185;28;20238;-74
2023/03/23 06:17:17;;;;;;;7.65;2.10;;;;;;;13.47;79.23;98835.69;5013184;28;20268;-74
2023/03/23 06:19:45;;;;;;;8.45;2.20;;;13.20;99.90;;;13.40;79.81;98837.63;5040282;28;20233;-78
2023/03/23 06:22:11;;;;;;;10.30;2.83;;;;;;;13.31;80.59;98843.19;5038299;28;20238;-79
2023/03/23 06:24:38;;;;;;;8.05;2.22;;;;;;;13.25;81.17;98872.56;5028108;28;20223;-78
2023/03/23 06:27:04;;;;;;;9.02;2.33;;;;;;;13.48;80.54;98874.59;5046571;28;20238;-78
2023/03/23 06:29:31;;;;;;;12.95;3.40;;;;;;;13.54;79.51;98869.13;5033191;28;20707;-76
2023/03/23 06:32:02;;;;;;;8.50;2.25;;;13.30;99.90;;;13.49;79.98;98870.16;5031788;28;20242;-76
2023/03/23 06:34:29;;;;;;;7.88;2.20;;;13.30;99.90;;;13.50;79.99;98883.38;5016489;28;20264;-75
2023/03/23 06:36:56;;;;;;;13.85;3.90;;;;;;;13.37;80.32;98882.84;5035993;28;20242;-79
2023/03/23 06:39:23;;;;;;;8.68;2.45;;;;;;;13.54;79.61;98890.38;5048532;28;20305;-78
2023/03/23 06:41:50;;;;;;;9.43;2.60;;;13.70;99.90;;;13.50;80.22;98909.94;5041618;28;20251;-76
2023/03/23 06:44:17;;;;;;;12.32;3.47;;;;;;;13.51;80.25;98914.34;5029564;28;20250;-74
2023/03/23 06:46:43;;;;;;;8.57;2.33;;;;;;;13.56;80.18;98922.19;5012802;28;20231;-77
2023/03/23 06:49:10;;;;;;;8.55;2.35;;;;;;;13.51;80.38;98932.94;5031368;28;20687;-77
2023/03/23 06:51:37;;;;;;;7.38;2.10;;;;;;;13.52;80.56;98952.41;5038719;28;20226;-76
2023/03/23 06:54:04;;;;;;;8.70;2.40;;;13.40;99.90;;;13.57;80.11;98950.50;5029874;28;20308;-73
2023/03/23 06:56:30;;;;;;;10.18;2.67;;;;;;;13.48;80.80;98974.63;5036213;28;20242;-74
2023/03/23 06:58:57;;;;;;;8.98;2.47;;;;;;;13.35;81.55;98984.69;5047508;23;20238;-75
2023/03/23 07:01:23;;;;;;;13.38;3.88;;;;;;;13.31;81.86;98996.31;4999145;28;20733;-74
2023/03/23 07:03:50;;;;;;;11.55;3.22;;;;;;;13.25;82.48;98999.13;5008772;28;20257;-73
2023/03/23 07:06:16;;;;;;;12.15;3.55;;;;;;;13.14;83.79;99023.22;4998803;28;20235;-74
2023/03/23 07:08:42;;;;;;;12.30;3.45;;;;;;;13.12;84.10;99044.50;5010184;28;20243;-73
2023/03/23 07:11:10;;;;;;;5.60;1.63;;;12.90;99.90;;;13.08;84.66;99053.44;4996182;28;20245;-73
2023/03/23 07:13:36;;;;;;;6.05;1.73;;;;;;;12.99;85.84;99076.63;5007038;28;20223;-72
2023/03/23 07:16:06;;;;;;;10.73;3.13;;;12.80;99.90;;;12.94;87.03;99073.19;5007236;28;20239;-74
2023/03/23 07:18:32;;;;;;;7.47;2.13;;;;;;;12.93;87.36;99088.25;4995947;28;20262;-72
2023/03/23 07:20:59;;;;;;;7.60;2.08;;;;;;;12.93;87.62;99084.72;4994258;28;20239;-73
2023/03/23 07:23:26;;;;;;;7.85;2.22;;;;;;;12.93;87.88;99098.88;5012282;28;20314;-72
2023/03/23 07:25:53;;;;;;;9.20;2.70;;;;;;;12.87;88.69;99112.25;5012157;28;20318;-73
2023/03/23 07:28:20;;;;;;;7.93;2.45;;;;;;;12.86;89.50;99112.28;4993782;28;20247;-74
2023/03/23 07:30:46;;;;;;;7.60;2.20;;;;;;;12.80;90.37;99119.47;5010277;28;20302;-75
2023/03/23 07:33:12;;;;;;;7.13;2.08;;;;;;;12.81;90.49;99131.84;5008996;28;20238;-76
2023/03/23 07:35:39;;;;;;;8.27;2.35;;;;;;;12.79;91.02;99154.00;5009235;28;20295;-75
2023/03/23 07:38:06;;;;;;;6.45;1.90;;;12.60;99.90;;;12.77;91.54;99159.34;5008193;28;20301;-75
2023/03/23 07:40:33;;;;;;;8.90;2.53;;;;;;;12.74;92.53;99171.78;5004664;28;20243;-77
2023/03/23 07:43:00;;;;;;;8.43;2.55;;;;;;;12.73;93.06;99186.81;5007653;28;20239;-73
2023/03/23 07:45:27;;;;;;;7.75;2.20;;;;;;;12.70;93.68;99191.31;5009726;28;20231;-74
2023/03/23 07:47:53;;;;;;;4.72;1.40;;;;;;;12.74;93.60;99208.91;5006042;28;20294;-74
2023/03/23 07:50:24;;;;;;;8.93;2.53;;;12.60;99.90;;;12.76;93.47;99207.97;5003284;28;20336;-75
2023/03/23 07:52:59;;;;;;;8.40;2.45;;;12.60;99.90;;;12.77;93.56;99219.47;5003222;28;20521;-75
2023/03/23 07:55:27;;;;;;;7.90;2.17;;;12.60;99.90;;;12.76;93.87;99230.97;5007372;28;20231;-74
2023/03/23 08:00:33;;;;;;;12.68;3.30;;;;;;;12.81;94.22;99245.03;5023822;28;20227;-78
2023/03/23 08:03:00;;;;;;;9.90;2.80;;;;;;;12.87;93.62;99254.66;5024982;28;20246;-78
2023/03/23 08:05:27;;;;;;;8.60;2.50;;;12.70;99.90;;;12.88;93.46;99262.59;5014852;28;20327;-78
2023/03/23 08:07:54;;;;;;;11.13;3.15;;;12.70;99.90;;;12.89;93.19;99276.72;5025361;28;20231;-77
2023/03/23 08:10:22;;;;;;;9.20;2.60;;;12.70;99.90;;;12.91;93.02;99290.84;5012944;28;20299;-78
2023/03/23 08:12:53;;;;;;;7.30;2.00;;;12.80;99.90;;;12.94;92.37;99283.69;5028237;28;20245;-77
2023/03/23 08:15:21;;;;;;;7.10;2.03;;;12.80;99.90;;;12.96;92.27;99284.53;5021344;28;20785;-77
2023/03/23 08:17:48;;;;;;;10.38;2.97;;;;;;;12.98;92.29;99288.03;5008386;28;20334;-77
2023/03/23 08:20:16;;;;;;;9.88;2.70;;;;;;;13.01;91.74;99290.66;5024427;28;20337;-75
2023/03/23 08:22:56;;;;;;;7.38;2.13;;;13.10;99.90;;;13.00;91.89;99294.22;5022858;28;20234;-75
2023/03/23 08:25:27;;;;;;;16.45;4.18;;;12.90;99.90;;;12.98;92.42;99311.94;5008036;28;20223;-78
2023/03/23 08:27:54;;;;;;;12.32;3.20;;;12.90;99.90;;;13.02;92.21;99316.31;5021305;28;20265;-76
2023/03/23 08:30:25;;;;;;;8.30;2.25;;;14.90;99.90;;;13.02;91.67;99324.28;5026803;28;20324;-77
2023/03/23 08:32:52;;;;;;;10.70;3.00;;;14.80;99.90;;;13.08;90.80;99313.53;4998913;28;20260;-76
2023/03/23 08:35:19;;;;;;;12.48;3.38;;;12.90;99.90;;;13.07;91.34;99326.84;5026651;28;20231;-80
2023/03/23 08:37:50;;;;;;;9.32;2.53;;;;;;;13.07;91.88;99343.63;5024111;28;20238;-77
2023/03/23 08:40:19;;;;;;;9.13;2.40;;;12.90;99.90;;;13.10;91.20;99340.94;5017268;28;20232;-74
2023/03/23 08:42:47;;;;;;;11.07;3.00;;;13.00;99.90;;;13.11;90.90;99337.38;5016799;28;20257;-78
2023/03/23 08:45:17;;;;;;;7.97;2.15;;;12.90;99.90;;;13.10;90.97;99350.66;5016290;28;20258;-75
2023/03/23 08:47:44;;;;;;;10.40;2.85;;;;;;;13.13;91.48;99363.88;5011092;28;20231;-74
2023/03/23 08:50:16;;;;;;;10.88;3.10;;;13.00;99.90;;;13.22;91.19;99370.84;5013203;28;20289;-75
2023/03/23 08:52:43;;;;;;;8.07;2.45;;;;;;;13.30;90.22;99374.22;5021367;28;20250;-75
2023/03/23 08:55:10;;;;;;;7.97;2.30;;;13.20;99.90;;;13.37;89.21;99362.56;5017922;28;20227;-73
2023/03/23 08:57:37;;;;;;;8.30;2.33;;;;;;;13.39;88.43;99348.38;5012068;28;20273;-73
2023/03/23 09:00:40;;;;;;;10.05;3.03;;;13.20;99.90;;;13.41;87.89;99351.00;5011201;28;20240;-73
2023/03/23 09:02:59;;;;;;;9.45;2.75;;;;;;;13.54;86.89;99344.53;5008570;28;20246;-73
2023/03/23 09:05:27;;;;;;;9.73;3.20;;;13.40;99.90;;;13.56;86.60;99336.53;5023200;28;20231;-73
2023/03/23 09:07:58;;;;;;;6.85;2.00;;;13.40;99.90;;;13.59;86.55;99332.03;5016384;28;20235;-73
2023/03/23 09:10:27;;;;;;;8.02;2.25;;;13.40;99.90;;;13.62;86.32;99341.72;5018471;28;20233;-73
2023/03/23 09:12:54;;;;;;;6.78;2.08;;;13.40;99.90;;;13.55;86.24;99334.78;5010931;28;20298;-73
2023/03/23 09:15:21;;;;;;;8.32;2.50;;;;;;;13.49;86.68;99346.41;5012645;28;20235;-72
2023/03/23 09:17:52;;;;;;;6.68;1.83;;;13.30;99.90;;;13.45;86.04;99316.38;5007841;28;20305;-73
2023/03/23 09:20:21;;;;;;;7.45;2.17;;;13.30;99.90;;;13.44;86.16;99337.66;5014194;28;20255;-73
2023/03/23 09:22:51;;;;;;;9.15;2.67;;;13.30;99.90;;;13.45;86.81;99342.06;5024037;28;21697;-73
2023/03/23 09:25:21;;;;;;;8.05;2.33;;;13.30;99.90;;;13.41;87.22;99351.00;5012771;28;20223;-73
2023/03/23 09:27:53;;;;;;;12.27;3.58;;;13.20;99.90;;;13.40;87.86;99375.78;5028089;28;20223;-73
2023/03/23 09:30:20;;;;;;;10.43;3.10;;;13.20;99.90;;;13.35;88.55;99393.59;5010001;28;20243;-73
2023/03/23 09:32:48;;;;;;;9.77;2.78;;;13.10;99.90;;;13.27;90.20;99414.09;5015449;28;20322;-73
2023/03/23 09:35:16;;;;;;;10.30;2.95;;;13.10;99.90;;;13.20;92.13;99439.88;5010962;28;20235;-74
2023/03/23 09:37:46;;;;;;;8.63;2.42;;;13.00;99.90;;;13.09;93.76;99457.75;5019685;28;20231;-73
2023/03/23 09:40:20;;;;;;;11.27;3.22;;;12.60;99.90;;;12.97;95.47;99458.78;5013872;28;20239;-73
2023/03/23 09:42:51;;;;;;;8.80;2.55;;;12.90;99.90;;;13.11;97.47;99480.69;5015504;28;20243;-73
2023/03/23 09:45:23;;;;;;;8.13;2.28;;;13.00;99.90;;;13.29;97.95;99507.88;5007889;28;20231;-73
2023/03/23 09:48:25;;;;;;;9.20;2.72;;;13.20;99.90;;;13.48;99.11;99535.88;5018534;28;20226;-74
2023/03/23 09:51:11;;;;;;;10.52;2.97;;;13.20;99.90;;;13.33;97.80;99512.22;5027073;28;20250;-74
2023/03/23 09:53:43;;;;;;;5.80;1.88;;;13.10;99.90;;;13.23;98.47;99497.34;5005994;28;20243;-74
2023/03/23 09:56:13;;;;;;;6.03;1.85;;;13.00;99.90;;;13.17;97.73;99508.06;4999988;28;20259;-73
2023/03/23 09:59:25;;;;;;;8.63;2.50;;;13.30;99.90;;;13.12;97.49;99497.50;5004802;28;20226;-73
2023/03/23 10:01:57;;;;;;;11.85;3.40;;;12.90;99.90;;;13.11;97.87;99512.56;4986638;28;20231;-74
2023/03/23 10:04:39;;;;;;;13.57;3.83;;;13.30;99.90;;;13.12;98.08;99524.91;5008463;28;20262;-73
2023/03/23 10:07:18;;;;;;;8.40;2.63;;;13.00;99.90;;;13.16;97.78;99525.75;5016869;28;20227;-74
2023/03/23 10:09:51;;;;;;;8.93;2.67;;;13.10;99.90;;;13.31;98.65;99538.81;5019965;28;20235;-73
2023/03/23 10:12:59;;;;;;;14.93;4.20;;;13.20;99.90;;;13.48;96.03;99535.00;5007351;28;20239;-73
2023/03/23 10:15:34;;;;;;;7.43;2.15;;;13.30;99.90;;;13.48;95.97;99530.56;5018475;28;20687;-73
2023/03/23 10:18:25;;;;;;;9.68;2.92;;;13.30;99.90;;;13.56;94.95;99527.78;5021009;28;20241;-73
2023/03/23 10:21:00;;;;;;;7.20;2.28;;;13.40;99.90;;;13.59;94.44;99517.97;5037767;28;20230;-73
2023/03/23 10:23:48;;;;;;;8.38;2.47;;;13.50;99.90;;;13.65;94.25;99515.19;5036327;28;20248;-73
2023/03/23 10:26:45;;;;;;;7.15;2.15;;;13.30;99.90;;;13.48;94.36;99513.75;5021027;28;20224;-74
2023/03/23 10:29:46;;;;;;;12.80;3.63;;;13.30;99.90;;;13.49;96.63;99537.63;5017795;28;20223;-75
2023/03/23 10:32:38;;;;;;;6.90;2.10;;;13.50;99.90;;;13.75;98.23;99588.53;5002206;28;20227;-78
2023/03/23 10:35:18;;;;;;;8.50;2.50;;;13.70;99.90;;;13.94;99.30;99614.78;5023827;28;20615;-75
2023/03/23 10:37:56;;;;;;;10.70;3.10;;;13.50;99.90;;;13.67;99.23;99601.06;5002050;28;20262;-76
2023/03/23 10:40:29;;;;;;;7.22;2.13;;;13.20;99.90;;;13.65;100.00;99605.53;5006005;28;20251;-75
2023/03/23 10:42:55;;;;;;;7.05;2.10;;;;;;;13.59;100.00;99602.09;4986224;28;21296;-75
2023/03/23 10:45:32;;;;;;;11.77;3.50;;;13.50;99.90;;;13.78;100.00;99631.00;4998203;28;20237;-75
2023/03/23 10:48:14;;;;;;;8.00;2.42;;;13.50;99.90;;;13.57;100.00;99626.03;5022315;28;20238;-76
2023/03/23 10:50:43;;;;;;;13.07;3.83;;;13.40;99.90;;;13.56;100.00;99626.94;5011179;28;20234;-74
2023/03/23 10:53:25;;;;;;;9.27;2.72;;;13.20;99.90;;;13.57;100.00;99630.47;5005478;28;20231;-74
2023/03/23 10:55:52;;;;;;;7.70;2.20;;;;;;;13.68;100.00;99637.38;5003335;28;20219;-75
2023/03/23 10:58:35;;;;;;;19.60;4.00;;;13.50;99.90;;;13.64;100.00;99640.97;5000124;23;20650;-78
2023/03/23 11:01:05;;;;;;;7.70;2.45;;;13.50;99.90;;;13.72;100.00;99656.78;4944271;28;20241;-76